Time;durP1;ratioP1;P1;durP2;ratioP2;P2;SDS_P1;SDS_P2;PMS_P1;PMS_P2;Temp;Humidity;BMP_temperature;BMP_pressure;BME280_temperature;BME280_humidity;BME280_pressure;Samples;Min_cycle;Max_cycle;Signal;HPM_P1;HPM_P2
2023/08/18 00:01:19;;;;;;;;;;;16.10;99.90;;;;;;12344228;28;19973;-85
2023/08/18 00:07:21;;;;;;;;;;;15.90;99.90;;;;;;12338612;28;19934;-85
2023/08/18 00:13:23;;;;;;;;;;;16.00;99.90;;;;;;12354829;28;20686;-84
2023/08/18 00:19:24;;;;;;;;;;;16.00;99.90;;;;;;12369575;28;20017;-84
2023/08/18 00:25:26;;;;;;;;;;;15.90;99.90;;;;;;12376310;28;19966;-84
2023/08/18 00:31:28;;;;;;;;;;;16.00;99.90;;;;;;12372551;28;19930;-83
2023/08/18 00:37:30;;;;;;;;;;;16.00;99.90;;;;;;12382178;28;19937;-83
2023/08/18 00:43:32;;;;;;;;;;;16.00;99.90;;;;;;12359875;28;19933;-83
2023/08/18 00:49:33;;;;;;;;;;;16.00;99.90;;;;;;12359921;28;20075;-83
2023/08/18 00:55:35;;;;;;;;;;;15.90;99.90;;;;;;12393486;28;20024;-83
2023/08/18 01:01:37;;;;;;;;;;;16.00;99.90;;;;;;12361554;28;20341;-83
2023/08/18 01:07:38;;;;;;;;;;;16.00;99.90;;;;;;12352213;28;20028;-83
2023/08/18 01:13:59;;;;;;;;;;;16.00;99.90;;;;;;12359593;28;19929;-83
2023/08/18 01:20:02;;;;;;;;;;;16.10;99.90;;;;;;12364551;28;19934;-83
2023/08/18 01:26:04;;;;;;;;;;;16.10;99.90;;;;;;12362331;28;19953;-84
2023/08/18 01:32:07;;;;;;;;;;;16.00;99.90;;;;;;12357573;28;20011;-85
2023/08/18 01:38:09;;;;;;;;;;;16.10;99.90;;;;;;12380693;28;20370;-85
2023/08/18 01:44:13;;;;;;;;;;;16.20;99.90;;;;;;12376867;28;20285;-85
2023/08/18 01:50:15;;;;;;;;;;;16.20;99.90;;;;;;12335462;28;20408;-85
2023/08/18 01:56:17;;;;;;;;;;;16.10;99.90;;;;;;12361922;28;19968;-85
2023/08/18 02:02:19;;;;;;;;;;;16.20;99.90;;;;;;12360126;28;19977;-85
2023/08/18 02:08:21;;;;;;;;;;;16.10;99.90;;;;;;12357702;28;19929;-85
2023/08/18 02:14:23;;;;;;;;;;;16.20;99.90;;;;;;12349321;28;20329;-85
2023/08/18 02:20:24;;;;;;;;;;;16.10;99.90;;;;;;12374212;28;19930;-85
2023/08/18 02:26:26;;;;;;;;;;;16.10;99.90;;;;;;12353267;28;19980;-85
2023/08/18 02:32:28;;;;;;;;;;;16.00;99.90;;;;;;12358343;28;20020;-84
2023/08/18 02:38:30;;;;;;;;;;;16.10;99.90;;;;;;12357815;28;19973;-83
2023/08/18 02:44:32;;;;;;;;;;;16.00;99.90;;;;;;12397882;28;19930;-83
2023/08/18 02:50:33;;;;;;;;;;;15.90;99.90;;;;;;12414433;28;19930;-83
2023/08/18 02:56:37;;;;;;;;;;;15.90;99.90;;;;;;12362672;28;19926;-84
2023/08/18 03:02:38;;;;;;;;;;;15.80;99.90;;;;;;12371295;28;19933;-84
2023/08/18 03:08:40;;;;;;;;;;;15.90;99.90;;;;;;12371918;28;19930;-83
2023/08/18 03:14:42;;;;;;;;;;;15.80;99.90;;;;;;12349113;28;20028;-84
2023/08/18 03:20:48;;;;;;;;;;;15.90;99.90;;;;;;12353028;28;20739;-83
2023/08/18 03:26:49;;;;;;;;;;;15.90;99.90;;;;;;12358231;28;20017;-84
2023/08/18 03:32:55;;;;;;;;;;;15.90;99.90;;;;;;12352556;28;20024;-83
2023/08/18 03:38:57;;;;;;;;;;;15.90;99.90;;;;;;12335786;28;19974;-84
2023/08/18 03:44:59;;;;;;;;;;;15.90;99.90;;;;;;12356534;28;19926;-84
2023/08/18 03:51:01;;;;;;;;;;;15.80;99.90;;;;;;12343850;28;19973;-84
2023/08/18 03:57:03;;;;;;;;;;;15.70;99.90;;;;;;12341351;28;19969;-84
2023/08/18 04:03:04;;;;;;;;;;;15.70;99.90;;;;;;12361306;28;20382;-84
2023/08/18 04:09:08;;;;;;;;;;;15.70;99.90;;;;;;12359296;28;19977;-84
2023/08/18 04:15:10;;;;;;;;;;;15.70;99.90;;;;;;12353220;28;19980;-84
2023/08/18 04:21:12;;;;;;;;;;;15.70;99.90;;;;;;12360122;28;19980;-84
2023/08/18 04:27:14;;;;;;;;;;;15.70;99.90;;;;;;12343389;28;20012;-84
2023/08/18 04:33:15;;;;;;;;;;;15.80;99.90;;;;;;12337610;28;19980;-84
2023/08/18 04:39:17;;;;;;;;;;;15.70;99.90;;;;;;12365009;28;19933;-84
2023/08/18 04:45:19;;;;;;;;;;;15.80;99.90;;;;;;12347183;28;19973;-84
2023/08/18 04:51:21;;;;;;;;;;;15.80;99.90;;;;;;12347158;28;20406;-83
2023/08/18 04:57:23;;;;;;;;;;;15.80;99.90;;;;;;12348764;28;20020;-85
2023/08/18 05:03:25;;;;;;;;;;;15.90;99.90;;;;;;12336688;28;20056;-84
2023/08/18 05:09:27;;;;;;;;;;;15.80;99.90;;;;;;12352830;28;20045;-85
2023/08/18 05:15:29;;;;;;;;;;;15.80;99.90;;;;;;12333370;28;19957;-85
2023/08/18 05:21:31;;;;;;;;;;;15.80;99.90;;;;;;12348305;28;19937;-85
2023/08/18 05:27:33;;;;;;;;;;;15.80;99.90;;;;;;12335103;28;19937;-85
2023/08/18 05:33:35;;;;;;;;;;;15.90;99.90;;;;;;12358241;28;20449;-85
2023/08/18 05:39:36;;;;;;;;;;;15.90;99.90;;;;;;12338977;28;20374;-85
2023/08/18 05:45:38;;;;;;;;;;;15.90;99.90;;;;;;12370339;28;19926;-86
2023/08/18 05:51:43;;;;;;;;;;;16.00;99.90;;;;;;12359334;28;19976;-84
2023/08/18 05:57:44;;;;;;;;;;;16.00;99.90;;;;;;12347946;28;19987;-85
2023/08/18 06:03:46;;;;;;;;;;;16.00;99.90;;;;;;12380273;28;19930;-86
2023/08/18 06:09:48;;;;;;;;;;;16.10;99.90;;;;;;12369502;28;19930;-84
2023/08/18 06:15:52;;;;;;;;;;;16.10;99.90;;;;;;12341541;28;20401;-84
2023/08/18 06:21:54;;;;;;;;;;;16.20;99.90;;;;;;12422669;28;19926;-84
2023/08/18 06:27:56;;;;;;;;;;;16.20;99.90;;;;;;12334638;28;19922;-85
2023/08/18 06:33:58;;;;;;;;;;;16.30;99.90;;;;;;12340965;28;19927;-84
2023/08/18 06:40:00;;;;;;;;;;;16.40;99.90;;;;;;12326620;28;19927;-85
2023/08/18 06:46:03;;;;;;;;;;;16.50;99.90;;;;;;12303746;28;20355;-85
2023/08/18 06:52:05;;;;;;;;;;;16.70;99.90;;;;;;12292086;28;20392;-84
2023/08/18 06:58:07;;;;;;;;;;;16.70;99.90;;;;;;12297648;28;19926;-84
2023/08/18 07:04:09;;;;;;;;;;;16.80;99.90;;;;;;12285584;28;19934;-84
2023/08/18 07:10:12;;;;;;;;;;;16.90;99.90;;;;;;12277467;28;20295;-84
2023/08/18 07:16:14;;;;;;;;;;;17.10;99.90;;;;;;12283937;28;19938;-84
2023/08/18 07:22:16;;;;;;;;;;;17.10;99.90;;;;;;12288417;28;19934;-86
2023/08/18 07:28:18;;;;;;;;;;;17.30;99.90;;;;;;12336532;28;19992;-86
2023/08/18 07:34:20;;;;;;;;;;;17.50;99.90;;;;;;12363236;28;19933;-86
2023/08/18 07:40:22;;;;;;;;;;;17.70;99.90;;;;;;12352872;28;19983;-85
2023/08/18 07:46:23;;;;;;;;;;;17.70;99.90;;;;;;12345785;28;20546;-85
2023/08/18 07:52:25;;;;;;;;;;;17.80;99.90;;;;;;12355978;28;19933;-86
2023/08/18 07:58:27;;;;;;;;;;;17.80;99.90;;;;;;12339294;28;19926;-86
2023/08/18 08:04:29;;;;;;;;;;;18.00;99.90;;;;;;12345299;28;19926;-86
2023/08/18 08:10:31;;;;;;;;;;;18.30;99.90;;;;;;12334925;28;19926;-85
2023/08/18 08:16:35;;;;;;;;;;;18.60;99.90;;;;;;12351742;28;20401;-86
2023/08/18 08:22:37;;;;;;;;;;;18.80;99.90;;;;;;12349827;28;20286;-86
2023/08/18 08:28:44;;;;;;;;;;;19.10;99.90;;;;;;12365975;28;20299;-86
2023/08/18 08:34:49;;;;;;;;;;;19.30;99.90;;;;;;12360183;28;19976;-86
2023/08/18 08:40:54;;;;;;;;;;;19.60;99.90;;;;;;12339594;28;19939;-86
2023/08/18 08:46:59;;;;;;;;;;;19.80;99.90;;;;;;12345396;28;19930;-86
2023/08/18 08:53:03;;;;;;;;;;;20.20;99.90;;;;;;12356070;28;19941;-86
2023/08/18 08:59:05;;;;;;;;;;;20.60;99.90;;;;;;12352585;28;19934;-87
2023/08/18 09:05:07;;;;;;;;;;;21.00;99.90;;;;;;12363640;28;19969;-87
2023/08/18 09:11:09;;;;;;;;;;;21.30;99.90;;;;;;12362404;28;19937;-87
2023/08/18 09:17:11;;;;;;;;;;;21.40;99.90;;;;;;12380253;28;19964;-86
2023/08/18 09:23:13;;;;;;;;;;;22.00;99.90;;;;;;12360710;28;19937;-86
2023/08/18 09:29:15;;;;;;;;;;;22.30;99.90;;;;;;12370362;28;19979;-86
2023/08/18 09:35:19;;;;;;;;;;;22.50;99.90;;;;;;12369723;28;19926;-87
2023/08/18 09:41:21;;;;;;;;;;;23.00;99.90;;;;;;12360351;28;19984;-87
2023/08/18 09:47:24;;;;;;;;;;;23.10;99.90;;;;;;12372518;28;20286;-87
2023/08/18 09:53:27;;;;;;;;;;;22.90;99.90;;;;;;12337028;28;19930;-85
2023/08/18 09:59:35;;;;;;;;;;;22.70;99.90;;;;;;12354230;28;19930;-86
2023/08/18 10:05:37;;;;;;;;;;;22.70;99.90;;;;;;12363928;28;20389;-86
2023/08/18 10:11:39;;;;;;;;;;;23.30;99.90;;;;;;12370765;28;20144;-86
2023/08/18 10:17:53;;;;;;;;;;;23.90;99.90;;;;;;12355813;28;19930;-87
2023/08/18 10:23:55;;;;;;;;;;;24.30;99.90;;;;;;12354069;28;19972;-87
2023/08/18 10:29:59;;;;;;;;;;;24.40;99.90;;;;;;12357725;28;19926;-87
2023/08/18 10:36:02;;;;;;;;;;;24.60;99.90;;;;;;12351770;28;19933;-87
2023/08/18 10:42:06;;;;;;;;;;;24.50;99.90;;;;;;12343889;28;19981;-85
2023/08/18 10:48:08;;;;;;;;;;;24.60;99.90;;;;;;12365642;28;20432;-85
2023/08/18 10:54:15;;;;;;;;;;;24.90;99.90;;;;;;12339223;28;19926;-84
2023/08/18 11:00:18;;;;;;;;;;;24.90;99.90;;;;;;12352442;28;20057;-83
2023/08/18 11:06:20;;;;;;;;;;;24.60;99.90;;;;;;12356463;28;19926;-85
2023/08/18 11:12:22;;;;;;;;;;;25.30;99.90;;;;;;12354236;28;19926;-87
2023/08/18 11:18:24;;;;;;;;;;;25.70;99.90;;;;;;12336119;28;19971;-84
2023/08/18 11:24:30;;;;;;;;;;;25.70;99.90;;;;;;12363813;28;19929;-86
2023/08/18 11:30:32;;;;;;;;;;;26.20;99.90;;;;;;12355847;28;19929;-84
2023/08/18 11:36:34;;;;;;;;;;;26.30;99.90;;;;;;12343381;28;20480;-84
2023/08/18 11:42:37;;;;;;;;;;;25.80;99.90;;;;;;12366301;28;19992;-86
2023/08/18 11:48:39;;;;;;;;;;;26.10;99.90;;;;;;12355362;28;19930;-86
2023/08/18 11:54:42;;;;;;;;;;;26.00;99.90;;;;;;12355254;28;19929;-83
2023/08/18 12:00:44;;;;;;;;;;;26.50;99.90;;;;;;12352528;28;19926;-84
2023/08/18 12:06:46;;;;;;;;;;;26.80;99.90;;;;;;12355593;28;19934;-86
2023/08/18 12:12:55;;;;;;;;;;;26.50;99.90;;;;;;12359642;28;20021;-86
2023/08/18 12:18:57;;;;;;;;;;;26.40;99.90;;;;;;12335897;28;19965;-85
2023/08/18 12:24:58;;;;;;;;;;;26.40;99.90;;;;;;12334361;28;20017;-85
2023/08/18 12:31:00;;;;;;;;;;;26.80;99.90;;;;;;12355898;28;19929;-87
2023/08/18 12:37:02;;;;;;;;;;;27.00;99.90;;;;;;12359335;28;19937;-86
2023/08/18 12:43:04;;;;;;;;;;;27.30;99.90;;;;;;12362470;28;20028;-85
2023/08/18 12:49:06;;;;;;;;;;;27.20;99.90;;;;;;12369973;28;19934;-85
2023/08/18 12:55:07;;;;;;;;;;;27.20;99.90;;;;;;12360554;28;20012;-86
2023/08/18 13:01:12;;;;;;;;;;;27.50;99.90;;;;;;12375785;28;20075;-85
2023/08/18 13:07:14;;;;;;;;;;;27.70;99.90;;;;;;12369323;28;19937;-85
2023/08/18 13:13:19;;;;;;;;;;;27.80;99.90;;;;;;12368629;28;19969;-86
2023/08/18 13:19:22;;;;;;;;;;;27.70;99.90;;;;;;12358059;28;20335;-87
2023/08/18 13:25:31;;;;;;;;;;;27.90;99.90;;;;;;12349009;28;19937;-87
2023/08/18 13:31:33;;;;;;;;;;;28.00;99.90;;;;;;12353826;28;19930;-87
2023/08/18 13:37:35;;;;;;;;;;;27.70;99.90;;;;;;12338629;28;19934;-86
2023/08/18 13:43:36;;;;;;;;;;;27.50;99.90;;;;;;12349137;28;20020;-86
2023/08/18 13:49:38;;;;;;;;;;;27.60;99.90;;;;;;12358624;28;19969;-86
2023/08/18 13:55:43;;;;;;;;;;;27.70;99.90;;;;;;12364164;28;19934;-86
2023/08/18 14:01:45;;;;;;;;;;;27.70;99.90;;;;;;12372459;28;20021;-86
2023/08/18 14:07:46;;;;;;;;;;;27.80;99.90;;;;;;12359502;28;19952;-86
2023/08/18 14:13:48;;;;;;;;;;;27.80;99.90;;;;;;12353591;28;20016;-86
2023/08/18 14:19:50;;;;;;;;;;;28.00;99.90;;;;;;12370516;28;20036;-86
2023/08/18 14:25:53;;;;;;;;;;;28.20;99.90;;;;;;12339439;28;20290;-85
2023/08/18 14:31:55;;;;;;;;;;;28.10;99.90;;;;;;12354390;28;19953;-84
2023/08/18 14:37:57;;;;;;;;;;;28.10;99.90;;;;;;12335790;28;20449;-85
2023/08/18 14:43:59;;;;;;;;;;;28.20;99.90;;;;;;12353910;28;19997;-85
2023/08/18 14:50:04;;;;;;;;;;;28.20;99.90;;;;;;12351024;28;20064;-85
2023/08/18 14:56:08;;;;;;;;;;;28.20;99.90;;;;;;12356961;28;19929;-84
2023/08/18 15:02:10;;;;;;;;;;;28.10;99.90;;;;;;12351723;28;20382;-85
2023/08/18 15:08:11;;;;;;;;;;;28.30;99.90;;;;;;12364543;28;19929;-85
2023/08/18 15:14:13;;;;;;;;;;;28.30;99.90;;;;;;12366788;28;19925;-84
2023/08/18 15:20:15;;;;;;;;;;;28.40;99.90;;;;;;12361058;28;19931;-84
2023/08/18 15:26:16;;;;;;;;;;;28.20;99.90;;;;;;12360871;28;19926;-86
2023/08/18 15:32:18;;;;;;;;;;;28.40;99.90;;;;;;12348018;28;19926;-86
2023/08/18 15:38:20;;;;;;;;;;;28.40;99.90;;;;;;12345977;28;19933;-85
2023/08/18 15:44:22;;;;;;;;;;;28.10;99.90;;;;;;12349957;28;19961;-86
2023/08/18 15:50:24;;;;;;;;;;;28.30;99.90;;;;;;12365100;28;19979;-86
2023/08/18 15:56:26;;;;;;;;;;;28.50;99.90;;;;;;12348938;28;19952;-86
2023/08/18 16:02:28;;;;;;;;;;;28.50;99.90;;;;;;12368369;28;19981;-85
2023/08/18 16:08:30;;;;;;;;;;;28.40;99.90;;;;;;12352739;28;20366;-86
2023/08/18 16:14:32;;;;;;;;;;;28.10;99.90;;;;;;12350776;28;20052;-86
2023/08/18 16:20:37;;;;;;;;;;;28.20;99.90;;;;;;12348942;28;20399;-86
2023/08/18 16:26:38;;;;;;;;;;;28.10;99.90;;;;;;12356985;28;19930;-86
2023/08/18 16:32:40;;;;;;;;;;;27.90;99.90;;;;;;12399334;28;19914;-86
2023/08/18 16:38:44;;;;;;;;;;;27.70;99.90;;;;;;12415678;28;19926;-86
2023/08/18 16:44:45;;;;;;;;;;;27.70;99.90;;;;;;12403053;28;19934;-85
2023/08/18 16:50:47;;;;;;;;;;;27.70;99.90;;;;;;12348023;28;19930;-85
2023/08/18 16:56:49;;;;;;;;;;;27.80;99.90;;;;;;12345523;28;20024;-86
2023/08/18 17:02:50;;;;;;;;;;;27.60;99.90;;;;;;12366301;28;19969;-86
2023/08/18 17:08:54;;;;;;;;;;;27.60;99.90;;;;;;12343203;28;20003;-85
2023/08/18 17:14:56;;;;;;;;;;;27.50;99.90;;;;;;12355828;28;19934;-86
2023/08/18 17:20:58;;;;;;;;;;;27.60;99.90;;;;;;12362551;28;19926;-85
2023/08/18 17:27:00;;;;;;;;;;;27.50;99.90;;;;;;12361588;28;19930;-86
2023/08/18 17:33:02;;;;;;;;;;;27.40;99.90;;;;;;12350471;28;19980;-87
2023/08/18 17:39:04;;;;;;;;;;;27.40;99.90;;;;;;12331480;28;19926;-86
2023/08/18 17:45:09;;;;;;;;;;;27.30;99.90;;;;;;12344790;28;19988;-87
2023/08/18 17:51:10;;;;;;;;;;;27.10;99.90;;;;;;12348976;28;19926;-87
2023/08/18 17:57:12;;;;;;;;;;;26.90;99.90;;;;;;12351737;28;19978;-85
2023/08/18 18:03:14;;;;;;;;;;;26.60;99.90;;;;;;12357646;28;19953;-85
2023/08/18 18:09:16;;;;;;;;;;;26.20;99.90;;;;;;12365513;28;19941;-85
2023/08/18 18:15:18;;;;;;;;;;;26.00;99.90;;;;;;12341688;28;19934;-86
2023/08/18 18:21:20;;;;;;;;;;;25.70;99.90;;;;;;12366992;28;20314;-85
2023/08/18 18:27:23;;;;;;;;;;;25.50;99.90;;;;;;12375726;28;20442;-84
2023/08/18 18:33:27;;;;;;;;;;;25.40;99.90;;;;;;12359955;28;19930;-85
2023/08/18 18:39:30;;;;;;;;;;;25.20;99.90;;;;;;12375519;28;19968;-84
2023/08/18 18:45:34;;;;;;;;;;;25.10;99.90;;;;;;12360974;28;20349;-84
2023/08/18 18:51:36;;;;;;;;;;;24.80;99.90;;;;;;12366398;28;19985;-83
2023/08/18 18:57:38;;;;;;;;;;;24.70;99.90;;;;;;12339991;28;19969;-84
2023/08/18 19:03:40;;;;;;;;;;;24.60;99.90;;;;;;12359908;28;19937;-85
2023/08/18 19:09:42;;;;;;;;;;;24.40;99.90;;;;;;12342666;28;19930;-85
2023/08/18 19:15:44;;;;;;;;;;;24.20;99.90;;;;;;12351691;28;19937;-85
2023/08/18 19:21:45;;;;;;;;;;;24.10;99.90;;;;;;12354949;28;19941;-85
2023/08/18 19:27:47;;;;;;;;;;;24.10;99.90;;;;;;12337111;28;20333;-85
2023/08/18 19:33:52;;;;;;;;;;;24.20;99.90;;;;;;12344055;28;19930;-85
2023/08/18 19:39:54;;;;;;;;;;;24.00;99.90;;;;;;12335610;28;20016;-85
2023/08/18 19:45:56;;;;;;;;;;;23.90;99.90;;;;;;12345336;28;20051;-84
2023/08/18 19:52:00;;;;;;;;;;;23.70;99.90;;;;;;12359920;28;20267;-85
2023/08/18 19:58:03;;;;;;;;;;;23.70;99.90;;;;;;12353046;28;20024;-85
2023/08/18 20:04:05;;;;;;;;;;;23.70;99.90;;;;;;12356871;28;19934;-84
2023/08/18 20:10:07;;;;;;;;;;;23.70;99.90;;;;;;12361597;28;19926;-85
2023/08/18 20:16:09;;;;;;;;;;;23.70;99.90;;;;;;12353774;28;19929;-85
2023/08/18 20:22:11;;;;;;;;;;;23.70;99.90;;;;;;12365854;28;19980;-84
2023/08/18 20:28:13;;;;;;;;;;;23.70;99.90;;;;;;12356945;28;20016;-84
2023/08/18 20:34:14;;;;;;;;;;;23.60;99.90;;;;;;12346927;28;19977;-83
2023/08/18 20:40:16;;;;;;;;;;;23.60;99.90;;;;;;12340290;28;19930;-84
2023/08/18 20:46:20;;;;;;;;;;;23.60;99.90;;;;;;12351842;28;20012;-84
2023/08/18 20:52:22;;;;;;;;;;;23.70;99.90;;;;;;12349802;28;19925;-84
2023/08/18 20:58:24;;;;;;;;;;;23.80;99.90;;;;;;12376001;28;20067;-83
2023/08/18 21:04:27;;;;;;;;;;;23.70;99.90;;;;;;12349432;28;20473;-84
2023/08/18 21:10:28;;;;;;;;;;;23.70;99.90;;;;;;12346771;28;19972;-84
2023/08/18 21:16:30;;;;;;;;;;;23.60;99.90;;;;;;12343486;28;19984;-84
2023/08/18 21:22:40;;;;;;;;;;;23.60;99.90;;;;;;12361073;28;19930;-85
2023/08/18 21:28:41;;;;;;;;;;;23.50;99.90;;;;;;12336377;28;19926;-84
2023/08/18 21:34:43;;;;;;;;;;;23.50;99.90;;;;;;12346653;28;20306;-85
2023/08/18 21:40:52;;;;;;;;;;;23.50;99.90;;;;;;12369359;28;19982;-86
2023/08/18 21:46:53;;;;;;;;;;;23.50;99.90;;;;;;12366634;28;19952;-86
2023/08/18 21:52:55;;;;;;;;;;;23.40;99.90;;;;;;12373448;28;19926;-85
2023/08/18 21:58:57;;;;;;;;;;;23.30;99.90;;;;;;12331022;28;19949;-85
2023/08/18 22:04:59;;;;;;;;;;;23.10;99.90;;;;;;12359711;28;19934;-85
2023/08/18 22:11:01;;;;;;;;;;;23.10;99.90;;;;;;12359183;28;19953;-86
2023/08/18 22:17:03;;;;;;;;;;;23.10;99.90;;;;;;12343615;28;19926;-86
2023/08/18 22:23:05;;;;;;;;;;;23.10;99.90;;;;;;12347902;28;20314;-85
2023/08/18 22:29:07;;;;;;;;;;;23.20;99.90;;;;;;12357819;28;20527;-85
2023/08/18 22:35:09;;;;;;;;;;;23.30;99.90;;;;;;12343943;28;19926;-84
2023/08/18 22:41:10;;;;;;;;;;;23.30;99.90;;;;;;12369035;28;19933;-84
2023/08/18 22:47:13;;;;;;;;;;;23.40;99.90;;;;;;12355095;28;19930;-84
2023/08/18 22:53:15;;;;;;;;;;;23.40;99.90;;;;;;12364480;28;19933;-85
2023/08/18 22:59:17;;;;;;;;;;;23.30;99.90;;;;;;12350624;28;19953;-85
2023/08/18 23:05:18;;;;;;;;;;;23.30;99.90;;;;;;12356436;28;20392;-83
2023/08/18 23:11:20;;;;;;;;;;;23.30;99.90;;;;;;12354154;28;19958;-83
2023/08/18 23:17:22;;;;;;;;;;;23.30;99.90;;;;;;12348717;28;20405;-85
2023/08/18 23:23:24;;;;;;;;;;;23.40;99.90;;;;;;12348478;28;19926;-84
2023/08/18 23:29:26;;;;;;;;;;;23.50;99.90;;;;;;12356130;28;19962;-86
2023/08/18 23:35:28;;;;;;;;;;;23.50;99.90;;;;;;12351803;28;19941;-85
2023/08/18 23:41:30;;;;;;;;;;;23.60;99.90;;;;;;12349422;28;19926;-85
2023/08/18 23:47:32;;;;;;;;;;;23.60;99.90;;;;;;12347242;28;20373;-83
2023/08/18 23:53:34;;;;;;;;;;;23.60;99.90;;;;;;12337744;28;19933;-85
2023/08/18 23:59:36;;;;;;;;;;;23.60;99.90;;;;;;12359068;28;20076;-84
